»·PEaware :: DAL1788 KLAS-KSLC

DAL1788 :: KLAS-KSLC

FLIGHT INFORMATION

Flight Status: Arrived
Operator:
Delta Air Lines
More flights by this operator :: More flights under this callsign
Pilot: Patricio R. (14780)
Aircraft: BOEING 737-800
(B738)
More flights by this aircraft type
Origin: KLAS McCarran Intl
United States
Destination: KSLC Salt Lake City Intl
United States
More flights between these airports :: More routes between these airports
Route: STAAV8 MLF QWENN5
File this flight plan on PilotEdge
Remarks: PBN / A1B1C1D1S1S2 DOF / 171229 REG / N806SB EET / KZLC0024 OPR / DAL PER / C RMK / TCAS SIMBRIEF
Altitude:
(Current/Filed)
31,000ft
Speed:
(Current/Filed)
423kts
Departed: 29-Dec-17 01:27 PM
Arrived: 29-Dec-17 02:27 PM
Distance/Time
Traveled:
319nm/1:00
Distance/Time
To Go:
Arrived

Flight Plot

Page will automatically refresh every two minutes.

Flight plan parsing failed; only flown route is shown


Map Options




Map Legend


Flown Route
Filed Route
Departure Airport
Arrival Airport
Navaid (VOR, NDB)
Fix

Horizontal Profiles

Position Reports

Time Latitude Longitude Heading Altitude Ground
Speed
29-Dec-17 13:07 36.080616 -115.138867 315 2119ft 0kts
29-Dec-17 13:08 36.080616 -115.138867 315 2119ft 0kts
29-Dec-17 13:09 36.080616 -115.138867 315 2119ft 0kts
29-Dec-17 13:10 36.080616 -115.138867 315 2119ft 0kts
29-Dec-17 13:11 36.080616 -115.138867 315 2119ft 0kts
29-Dec-17 13:12 36.080616 -115.138867 315 2119ft 0kts
29-Dec-17 13:13 36.080616 -115.138867 315 2119ft 0kts
29-Dec-17 13:14 36.080616 -115.138867 315 2119ft 0kts
29-Dec-17 13:15 36.080616 -115.138867 315 2119ft 0kts
29-Dec-17 13:16 36.080616 -115.138867 315 2119ft 0kts
29-Dec-17 13:17 36.080616 -115.138867 315 2119ft 0kts
29-Dec-17 13:18 36.080616 -115.138867 315 2119ft 0kts
29-Dec-17 13:19 36.080616 -115.138867 315 2119ft 0kts
29-Dec-17 13:20 36.080616 -115.138867 315 2119ft 0kts
29-Dec-17 13:21 36.080616 -115.138867 315 2119ft 0kts
29-Dec-17 13:22 36.080616 -115.138867 315 2119ft 0kts
29-Dec-17 13:23 36.080616 -115.138867 315 2119ft 0kts
29-Dec-17 13:24 36.080599 -115.138843 315 2119ft 2kts
29-Dec-17 13:25 36.080173 -115.138318 315 2119ft 2kts
29-Dec-17 13:26 36.080159 -115.137886 224 2119ft 0kts
29-Dec-17 13:27 36.080159 -115.137886 224 2119ft 0kts
29-Dec-17 13:28 36.079564 -115.138642 226 2119ft 9kts
29-Dec-17 13:29 36.078270 -115.136979 90 2119ft 17kts
29-Dec-17 13:30 36.078279 -115.130389 90 2119ft 14kts
29-Dec-17 13:31 36.078291 -115.125300 89 2119ft 16kts
29-Dec-17 13:32 36.077058 -115.121243 169 2119ft 10kts
29-Dec-17 13:33 36.076396 -115.142216 270 2167ft 177kts
29-Dec-17 13:34 36.076665 -115.208090 270 4161ft 237kts
29-Dec-17 13:35 36.097606 -115.281529 332 7304ft 249kts
29-Dec-17 13:36 36.161726 -115.273387 44 10268ft 252kts
29-Dec-17 13:37 36.193660 -115.192928 73 12458ft 283kts
29-Dec-17 13:38 36.197201 -115.088712 89 14590ft 321kts
29-Dec-17 13:39 36.198234 -114.975447 86 17608ft 344kts
29-Dec-17 13:40 36.199307 -114.875116 87 19384ft 356kts
29-Dec-17 13:41 36.238337 -114.748254 41 22592ft 373kts
29-Dec-17 13:42 36.307051 -114.680954 40 23917ft 386kts
29-Dec-17 13:43 36.410385 -114.582179 36 26480ft 415kts
29-Dec-17 13:44 36.499296 -114.497801 34 30059ft 390kts
29-Dec-17 13:45 36.572357 -114.432956 29 31284ft 402kts
29-Dec-17 13:46 36.689473 -114.340969 31 31320ft 447kts
29-Dec-17 13:47 36.776238 -114.271852 30 31316ft 445kts
29-Dec-17 13:48 36.879841 -114.189186 29 31308ft 432kts
29-Dec-17 13:49 36.997653 -114.095337 29 31314ft 433kts
29-Dec-17 13:50 37.082162 -114.028026 29 31313ft 433kts
29-Dec-17 13:51 37.179745 -113.950334 29 31321ft 433kts
29-Dec-17 13:52 37.281103 -113.869674 28 31321ft 434kts
29-Dec-17 13:53 37.383000 -113.788624 28 31320ft 434kts
29-Dec-17 13:54 37.484835 -113.707670 28 31292ft 436kts
29-Dec-17 13:55 37.587286 -113.626259 28 31292ft 436kts
29-Dec-17 13:56 37.689966 -113.544751 27 31289ft 436kts
29-Dec-17 13:57 37.792211 -113.463552 27 31291ft 437kts
29-Dec-17 13:58 37.894980 -113.382009 27 31290ft 437kts
29-Dec-17 13:59 37.994369 -113.303159 27 31286ft 438kts
29-Dec-17 14:00 38.097198 -113.221640 27 31231ft 437kts
29-Dec-17 14:01 38.189349 -113.148637 27 31239ft 438kts
29-Dec-17 14:02 38.292413 -113.067074 27 31238ft 439kts
29-Dec-17 14:03 38.398189 -112.992117 18 31250ft 433kts
29-Dec-17 14:04 38.509049 -112.933698 18 31251ft 434kts
29-Dec-17 14:05 38.619800 -112.874457 18 30349ft 418kts
29-Dec-17 14:06 38.718314 -112.821653 14 29312ft 404kts
29-Dec-17 14:07 38.823558 -112.765360 14 28335ft 408kts
29-Dec-17 14:08 38.926801 -112.709551 14 27078ft 397kts
29-Dec-17 14:09 39.027773 -112.654696 14 26083ft 393kts
29-Dec-17 14:10 39.117085 -112.606147 14 25194ft 387kts
29-Dec-17 14:11 39.200128 -112.561017 14 24382ft 382kts
29-Dec-17 14:12 39.296926 -112.508448 14 24244ft 381kts
29-Dec-17 14:13 39.393884 -112.453015 15 24218ft 383kts
29-Dec-17 14:14 39.490568 -112.397311 15 22851ft 373kts
29-Dec-17 14:15 39.582640 -112.344344 16 21402ft 364kts
29-Dec-17 14:16 39.673396 -112.291904 16 19883ft 356kts
29-Dec-17 14:17 39.762398 -112.240180 16 18354ft 347kts
29-Dec-17 14:18 39.848779 -112.189965 16 16833ft 338kts
29-Dec-17 14:19 39.932127 -112.141532 16 15334ft 335kts
29-Dec-17 14:20 40.015556 -112.092146 17 14854ft 334kts
29-Dec-17 14:21 40.097963 -112.042163 17 13423ft 325kts
29-Dec-17 14:22 40.175447 -111.995322 21 12435ft 313kts
29-Dec-17 14:23 40.251147 -111.949449 24 11100ft 290kts
29-Dec-17 14:24 40.329594 -111.933848 3 11009ft 290kts
29-Dec-17 14:25 40.404891 -111.929345 354 11015ft 265kts
29-Dec-17 14:26 40.479326 -111.938802 354 10120ft 267kts
29-Dec-17 14:27 40.547614 -111.946846 354 8837ft 228kts
29-Dec-17 14:28 40.606262 -111.953622 354 7598ft 200kts
29-Dec-17 14:29 40.657403 -111.959519 354 6536ft 168kts
29-Dec-17 14:30 40.700515 -111.964527 353 5691ft 153kts
29-Dec-17 14:31 40.742841 -111.969419 354 4877ft 151kts
29-Dec-17 14:32 40.784321 -111.974270 355 4204ft 127kts
29-Dec-17 14:33 40.792141 -111.976573 272 4204ft 0kts
29-Dec-17 14:34 40.792086 -111.977779 264 4204ft 9kts
29-Dec-17 14:35 40.791387 -111.981435 184 4204ft 8kts
29-Dec-17 14:36 40.789741 -111.982295 220 4204ft 8kts
29-Dec-17 14:37 40.789210 -111.981603 99 4204ft 0kts

Navigation Log

Ident Type
Flight plan parsing failed, navigation log unavailable